createdAt,value
2022-09-14T00:00:14.293Z,100795.28
2022-09-14T00:02:46.901Z,100796.22
2022-09-14T00:05:16.401Z,100804.25
2022-09-14T00:07:45.469Z,100791.59
2022-09-14T00:10:15.058Z,100809.09
2022-09-14T00:12:44.239Z,100803.91
2022-09-14T00:15:13.464Z,100810.00
2022-09-14T00:17:42.591Z,100809.31
2022-09-14T00:20:13.809Z,100801.97
2022-09-14T00:22:43.074Z,100811.03
2022-09-14T00:25:12.236Z,100818.50
2022-09-14T00:27:41.345Z,100788.03
2022-09-14T00:30:12.179Z,100815.97
2022-09-14T00:32:41.329Z,100812.41
2022-09-14T00:35:12.276Z,100805.75
2022-09-14T00:37:41.435Z,100800.94
2022-09-14T00:40:12.636Z,100794.13
2022-09-14T00:42:41.869Z,100801.47
2022-09-14T00:45:18.088Z,100790.81
2022-09-14T00:47:52.218Z,100799.78
2022-09-14T00:50:24.095Z,100793.81
2022-09-14T00:52:54.228Z,100789.53
2022-09-14T00:55:25.004Z,100788.28
2022-09-14T00:57:55.553Z,100791.50
2022-09-14T01:00:29.208Z,100790.69
2022-09-14T01:02:58.679Z,100778.63
2022-09-14T01:05:50.488Z,100790.69
2022-09-14T01:08:39.539Z,100780.34
2022-09-14T01:11:29.529Z,100771.16
2022-09-14T01:14:08.143Z,100775.41
2022-09-14T01:16:48.972Z,100767.94
2022-09-14T01:19:30.330Z,100759.91
2022-09-14T01:22:11.052Z,100771.41
2022-09-14T01:24:47.851Z,100765.88
2022-09-14T01:27:33.105Z,100770.00
2022-09-14T01:30:09.551Z,100754.97
2022-09-14T01:32:46.359Z,100767.47
2022-09-14T01:35:23.676Z,100778.16
2022-09-14T01:37:57.286Z,100764.69
2022-09-14T01:40:32.142Z,100768.50
2022-09-14T01:43:10.933Z,100778.72
2022-09-14T01:45:45.415Z,100771.59
2022-09-14T01:48:18.369Z,100762.28
2022-09-14T01:50:51.218Z,100757.88
2022-09-14T01:53:27.622Z,100762.19
2022-09-14T01:56:03.479Z,100771.47
2022-09-14T01:58:39.662Z,100757.41
2022-09-14T02:01:16.069Z,100732.31
2022-09-14T02:03:53.878Z,100770.13
2022-09-14T02:06:30.207Z,100746.69
2022-09-14T02:09:00.282Z,100768.38
2022-09-14T02:11:29.532Z,100773.75
2022-09-14T02:14:00.535Z,100770.28
2022-09-14T02:16:30.023Z,100767.09
2022-09-14T02:19:01.834Z,100777.84
2022-09-14T02:21:34.407Z,100770.13
2022-09-14T02:24:04.644Z,100780.19
2022-09-14T02:26:34.849Z,100770.38
2022-09-14T02:29:05.743Z,100775.31
2022-09-14T02:31:48.260Z,100762.94
2022-09-14T02:34:27.581Z,100773.59
2022-09-14T02:37:07.772Z,100764.25
2022-09-14T02:39:52.657Z,100762.03
2022-09-14T02:42:29.681Z,100779.34
2022-09-14T02:45:12.731Z,100776.13
2022-09-14T02:47:50.649Z,100771.78
2022-09-14T02:50:27.774Z,100769.53
2022-09-14T02:53:06.294Z,100758.69
2022-09-14T02:55:41.031Z,100753.25
2022-09-14T02:58:12.496Z,100768.94
2022-09-14T03:00:45.400Z,100770.41
2022-09-14T03:03:17.224Z,100757.84
2022-09-14T03:05:47.187Z,100764.16
2022-09-14T03:08:16.419Z,100769.19
2022-09-14T03:10:45.897Z,100759.97
2022-09-14T03:13:15.149Z,100773.19
2022-09-14T03:15:46.000Z,100763.88
2022-09-14T03:18:15.237Z,100759.19
2022-09-14T03:20:45.014Z,100769.22
2022-09-14T03:23:15.282Z,100769.06
2022-09-14T03:25:46.221Z,100768.44
2022-09-14T03:28:15.563Z,100768.44
2022-09-14T03:30:46.093Z,100760.56
2022-09-14T03:33:16.573Z,100770.72
2022-09-14T03:35:45.753Z,100768.44
2022-09-14T03:38:14.925Z,100765.38
2022-09-14T03:40:44.152Z,100770.22
2022-09-14T03:43:13.469Z,100766.78
2022-09-14T03:45:43.154Z,100760.31
2022-09-14T03:48:15.510Z,100756.09
2022-09-14T03:50:44.826Z,100754.25
2022-09-14T03:53:14.167Z,100759.75
2022-09-14T03:55:43.379Z,100759.38
2022-09-14T03:58:12.895Z,100742.75
2022-09-14T04:00:42.829Z,100759.00
2022-09-14T04:03:13.448Z,100753.03
2022-09-14T04:05:42.686Z,100760.59
2022-09-14T04:08:11.991Z,100755.69
2022-09-14T04:10:41.199Z,100754.69
2022-09-14T04:13:10.455Z,100750.91
2022-09-14T04:15:39.685Z,100758.06
2022-09-14T04:18:08.997Z,100758.53
2022-09-14T04:20:39.877Z,100729.31
2022-09-14T04:23:09.563Z,100745.69
2022-09-14T04:25:38.704Z,100747.28
2022-09-14T04:28:20.057Z,100741.94
2022-09-14T04:30:58.412Z,100718.94
2022-09-14T04:33:31.427Z,100741.59
2022-09-14T04:36:05.241Z,100741.25
2022-09-14T04:38:36.171Z,100735.97
2022-09-14T04:41:08.634Z,100738.16
2022-09-14T04:43:38.313Z,100727.84
2022-09-14T04:46:12.044Z,100715.94
2022-09-14T04:48:41.397Z,100725.56
2022-09-14T04:51:16.816Z,100726.50
2022-09-14T04:53:47.825Z,100717.66
2022-09-14T04:56:17.984Z,100705.38
2022-09-14T04:58:51.833Z,100691.81
2022-09-14T05:01:23.798Z,100718.44
2022-09-14T05:03:54.078Z,100713.63
2022-09-14T05:06:27.525Z,100702.38
2022-09-14T05:08:57.386Z,100719.41
2022-09-14T05:11:29.818Z,100715.34
2022-09-14T05:14:00.488Z,100708.13
2022-09-14T05:16:32.514Z,100714.56
2022-09-14T05:19:05.132Z,100723.06
2022-09-14T05:21:36.684Z,100710.94
2022-09-14T05:24:09.354Z,100726.44
2022-09-14T05:26:38.344Z,100728.72
2022-09-14T05:29:07.712Z,100721.00
2022-09-14T05:31:37.851Z,100736.63
2022-09-14T05:34:07.089Z,100733.28
2022-09-14T05:36:39.485Z,100717.53
2022-09-14T05:39:10.140Z,100720.31
2022-09-14T05:41:39.345Z,100711.34
2022-09-14T05:44:08.952Z,100722.97
2022-09-14T05:46:38.190Z,100734.22
2022-09-14T05:49:07.625Z,100736.03
2022-09-14T05:51:38.324Z,100736.19
2022-09-14T05:54:11.618Z,100726.06
2022-09-14T05:56:40.828Z,100722.81
2022-09-14T05:59:10.959Z,100735.03
2022-09-14T06:01:40.609Z,100738.94
2022-09-14T06:04:12.626Z,100739.38
2022-09-14T06:06:55.973Z,100732.28
2022-09-14T06:09:33.355Z,100695.59
2022-09-14T06:12:02.943Z,100749.88
2022-09-14T06:14:32.423Z,100745.16
2022-09-14T06:17:03.099Z,100746.31
2022-09-14T06:19:32.276Z,100747.41
2022-09-14T06:22:02.913Z,100755.22
2022-09-14T06:24:32.152Z,100754.88
2022-09-14T06:27:01.387Z,100730.41
2022-09-14T06:29:30.542Z,100756.50
2022-09-14T06:31:59.750Z,100759.72
2022-09-14T06:34:29.096Z,100767.19
2022-09-14T06:36:58.476Z,100756.81
2022-09-14T06:39:31.850Z,100758.31
2022-09-14T06:42:01.081Z,100755.91
2022-09-14T06:44:31.222Z,100763.00
2022-09-14T06:47:00.525Z,100771.47
2022-09-14T06:49:29.751Z,100766.44
2022-09-14T06:52:00.956Z,100744.47
2022-09-14T06:54:33.728Z,100766.56
2022-09-14T06:57:03.689Z,100767.03
2022-09-14T06:59:32.878Z,100769.44
2022-09-14T07:02:02.245Z,100772.53
2022-09-14T07:04:31.535Z,100766.22
2022-09-14T07:07:03.715Z,100768.91
2022-09-14T07:09:34.449Z,100773.47
2022-09-14T07:12:06.183Z,100771.31
2022-09-14T07:14:36.743Z,100777.75
2022-09-14T07:17:06.617Z,100774.56
2022-09-14T07:19:35.830Z,100786.22
2022-09-14T07:22:05.072Z,100768.63
2022-09-14T07:24:35.692Z,100782.31
2022-09-14T07:27:05.498Z,100787.28
2022-09-14T07:29:34.943Z,100774.59
2022-09-14T07:32:04.491Z,100774.41
2022-09-14T07:34:33.885Z,100781.03
2022-09-14T07:37:03.388Z,100781.06
2022-09-14T07:39:34.187Z,100776.13
2022-09-14T07:42:03.631Z,100771.56
2022-09-14T07:44:33.043Z,100780.31
2022-09-14T07:47:02.303Z,100776.38
2022-09-14T07:49:34.750Z,100782.59
2022-09-14T07:52:04.687Z,100779.72
2022-09-14T07:54:38.439Z,100792.34
2022-09-14T07:57:07.978Z,100789.94
2022-09-14T07:59:37.605Z,100781.31
2022-09-14T08:02:08.630Z,100792.50
2022-09-14T08:04:39.487Z,100781.06
2022-09-14T08:07:09.248Z,100793.69
2022-09-14T08:09:40.925Z,100798.53
2022-09-14T08:12:10.532Z,100807.53
2022-09-14T08:14:39.678Z,100789.50
2022-09-14T08:17:10.770Z,100794.50
2022-09-14T08:19:41.306Z,100795.00
2022-09-14T08:22:10.527Z,100793.84
2022-09-14T08:24:41.181Z,100774.66
2022-09-14T08:27:12.300Z,100799.91
2022-09-14T08:29:41.641Z,100797.41
2022-09-14T08:32:13.869Z,100787.88
2022-09-14T08:34:42.983Z,100765.19
2022-09-14T08:37:13.173Z,100793.53
2022-09-14T08:39:45.380Z,100779.66
2022-09-14T08:42:23.023Z,100777.56
2022-09-14T08:44:57.693Z,100771.25
2022-09-14T08:47:29.967Z,100789.06
2022-09-14T08:50:06.106Z,100790.13
2022-09-14T08:52:38.537Z,100783.09
2022-09-14T08:55:29.246Z,100753.22
2022-09-14T08:58:03.991Z,100765.41
2022-09-14T09:00:40.927Z,100781.72
2022-09-14T09:03:45.758Z,100777.91
2022-09-14T09:06:21.667Z,100781.38
2022-09-14T09:09:03.896Z,100776.44
2022-09-14T09:11:41.771Z,100767.94
2022-09-14T09:14:21.660Z,100791.16
2022-09-14T09:16:55.197Z,100779.41
2022-09-14T09:19:31.804Z,100783.22
2022-09-14T09:22:04.412Z,100795.84
2022-09-14T09:24:40.467Z,100787.13
2022-09-14T09:27:13.999Z,100765.28
2022-09-14T09:29:43.719Z,100779.88
2022-09-14T09:32:17.824Z,100785.41
2022-09-14T09:35:22.247Z,100796.44
2022-09-14T09:38:00.824Z,100776.88
2022-09-14T09:40:45.027Z,100787.94
2022-09-14T09:43:28.917Z,100771.38
2022-09-14T09:46:09.285Z,100784.94
2022-09-14T09:48:44.276Z,100788.84
2022-09-14T09:51:18.868Z,100784.94
2022-09-14T09:53:54.633Z,100787.13
2022-09-14T09:56:27.866Z,100789.41
2022-09-14T09:58:58.401Z,100783.66
2022-09-14T10:01:31.131Z,100776.38
2022-09-14T10:04:09.246Z,100778.22
2022-09-14T10:06:45.065Z,100769.34
2022-09-14T10:09:17.032Z,100792.59
2022-09-14T10:11:48.224Z,100796.03
2022-09-14T10:14:31.470Z,100781.56
2022-09-14T10:17:17.181Z,100799.00
2022-09-14T10:19:50.222Z,100798.75
2022-09-14T10:22:27.501Z,100795.34
2022-09-14T10:25:01.300Z,100795.72
2022-09-14T10:27:41.638Z,100798.34
2022-09-14T10:30:21.068Z,100807.09
2022-09-14T10:32:59.258Z,100806.94
2022-09-14T10:35:44.073Z,100806.38
2022-09-14T10:38:30.545Z,100815.81
2022-09-14T10:41:11.829Z,100806.09
2022-09-14T10:44:04.113Z,100793.00
2022-09-14T10:46:44.782Z,100805.19
2022-09-14T10:49:32.285Z,100807.44
2022-09-14T10:52:14.156Z,100815.03
2022-09-14T10:55:32.071Z,100806.22
2022-09-14T10:58:24.761Z,100818.25
2022-09-14T11:01:10.122Z,100821.81
2022-09-14T11:03:59.830Z,100821.31
2022-09-14T11:06:44.827Z,100820.22
2022-09-14T11:09:23.198Z,100822.66
2022-09-14T11:12:07.888Z,100818.53
2022-09-14T11:14:56.960Z,100822.16
2022-09-14T11:17:56.799Z,100810.19
2022-09-14T11:20:42.726Z,100821.56
2022-09-14T11:23:42.663Z,100813.19
2022-09-14T11:26:18.176Z,100821.00
2022-09-14T11:28:53.238Z,100811.78
2022-09-14T11:31:28.124Z,100818.22
2022-09-14T11:34:08.719Z,100818.91
2022-09-14T11:36:45.357Z,100821.00
2022-09-14T11:39:21.608Z,100819.94
2022-09-14T11:41:56.425Z,100822.31
2022-09-14T11:44:33.181Z,100828.22
2022-09-14T11:47:08.579Z,100823.81
2022-09-14T11:49:57.692Z,100830.00
2022-09-14T11:52:30.641Z,100831.25
2022-09-14T11:55:02.252Z,100843.38
2022-09-14T11:57:34.489Z,100841.94
2022-09-14T12:00:07.620Z,100810.09
2022-09-14T12:03:14.615Z,100839.72
2022-09-14T12:05:45.067Z,100842.94
2022-09-14T12:08:41.384Z,100842.13
2022-09-14T12:11:34.846Z,100839.63
2022-09-14T12:14:36.016Z,100828.56
2022-09-14T12:20:45.119Z,100845.97
2022-09-14T12:23:46.354Z,100842.13
2022-09-14T12:26:39.722Z,100841.41
2022-09-14T12:29:30.341Z,100840.16
2022-09-14T12:32:26.706Z,100836.94
2022-09-14T12:35:45.315Z,100838.63
2022-09-14T12:39:05.452Z,100844.47
2022-09-14T12:42:05.379Z,100837.56
2022-09-14T12:44:41.116Z,100829.38
2022-09-14T12:47:58.770Z,100840.91
2022-09-14T12:50:33.173Z,100842.72
2022-09-14T12:53:21.656Z,100836.75
2022-09-14T12:56:04.349Z,100845.78
2022-09-14T12:58:59.399Z,100840.06
2022-09-14T13:01:39.752Z,100845.16
2022-09-14T13:04:16.548Z,100841.38
2022-09-14T13:06:48.438Z,100841.09
2022-09-14T13:09:22.119Z,100842.09
2022-09-14T13:11:57.977Z,100828.84
2022-09-14T13:14:32.855Z,100848.88
2022-09-14T13:17:04.359Z,100850.59
2022-09-14T13:19:35.359Z,100839.19
2022-09-14T13:22:18.034Z,100853.75
2022-09-14T13:24:49.155Z,100840.91
2022-09-14T13:27:25.331Z,100842.56
2022-09-14T13:30:07.429Z,100858.28
2022-09-14T13:32:42.365Z,100844.19
2022-09-14T13:35:19.872Z,100843.47
2022-09-14T13:37:50.284Z,100841.44
2022-09-14T13:40:25.561Z,100852.78
2022-09-14T13:42:57.279Z,100846.28
2022-09-14T13:45:27.001Z,100851.34
2022-09-14T13:47:57.035Z,100847.94
2022-09-14T13:50:27.213Z,100838.19
2022-09-14T13:53:02.522Z,100849.28
2022-09-14T13:55:45.357Z,100844.63
2022-09-14T13:58:23.370Z,100817.38
2022-09-14T14:00:58.001Z,100835.47
2022-09-14T14:03:39.909Z,100835.97
2022-09-14T14:06:27.118Z,100830.34
2022-09-14T14:09:03.517Z,100840.16
2022-09-14T14:11:38.227Z,100848.81
2022-09-14T14:14:30.398Z,100840.72
2022-09-14T14:17:25.743Z,100839.16
2022-09-14T14:19:57.066Z,100847.91
2022-09-14T14:22:29.857Z,100836.38
2022-09-14T14:25:13.340Z,100836.78
2022-09-14T14:27:46.616Z,100831.69
2022-09-14T14:30:21.084Z,100824.78
2022-09-14T14:32:51.974Z,100814.63
2022-09-14T14:35:23.673Z,100822.53
2022-09-14T14:37:53.248Z,100818.53
2022-09-14T14:40:22.804Z,100820.66
2022-09-14T14:42:52.789Z,100815.63
2022-09-14T14:45:26.746Z,100820.25
2022-09-14T14:47:57.541Z,100813.88
2022-09-14T14:50:29.816Z,100823.00
2022-09-14T14:52:59.240Z,100817.03
2022-09-14T14:55:31.216Z,100823.75
2022-09-14T14:58:02.934Z,100830.88
2022-09-14T15:00:36.432Z,100816.06
2022-09-14T15:03:06.042Z,100804.41
2022-09-14T15:05:35.332Z,100807.50
2022-09-14T15:08:04.602Z,100817.72
2022-09-14T15:10:33.876Z,100825.09
2022-09-14T15:13:02.999Z,100819.66
2022-09-14T15:15:33.784Z,100803.28
2022-09-14T15:18:02.943Z,100810.41
2022-09-14T15:20:32.194Z,100806.94
2022-09-14T15:23:01.475Z,100807.94
2022-09-14T15:25:30.785Z,100806.19
2022-09-14T15:28:00.261Z,100806.31
2022-09-14T15:30:29.442Z,100806.44
2022-09-14T15:32:59.945Z,100806.06
2022-09-14T15:35:29.097Z,100805.56
2022-09-14T15:37:58.277Z,100807.19
2022-09-14T15:40:27.553Z,100802.50
2022-09-14T15:42:56.721Z,100805.81
2022-09-14T15:45:26.052Z,100796.09
2022-09-14T15:47:55.231Z,100791.28
2022-09-14T15:50:25.697Z,100798.00
2022-09-14T15:52:58.031Z,100795.53
2022-09-14T15:55:29.844Z,100774.63
2022-09-14T15:57:59.141Z,100798.31
2022-09-14T16:00:28.334Z,100819.78
2022-09-14T16:02:57.864Z,100800.41
2022-09-14T16:05:28.417Z,100811.44
2022-09-14T16:07:58.470Z,100811.97
2022-09-14T16:10:28.194Z,100806.66
2022-09-14T16:12:57.408Z,100807.41
2022-09-14T16:15:26.742Z,100810.03
2022-09-14T16:17:56.685Z,100813.06
2022-09-14T16:20:29.506Z,100815.25
2022-09-14T16:22:58.817Z,100811.09
2022-09-14T16:25:28.060Z,100814.19
2022-09-14T16:27:57.562Z,100814.66
2022-09-14T16:30:26.822Z,100812.00
2022-09-14T16:32:55.985Z,100814.03
2022-09-14T16:35:25.333Z,100834.63
2022-09-14T16:37:55.853Z,100829.44
2022-09-14T16:40:25.388Z,100833.25
2022-09-14T16:42:54.522Z,100824.91
2022-09-14T16:45:23.764Z,100832.69
2022-09-14T16:47:53.272Z,100830.22
2022-09-14T16:50:22.474Z,100842.13
2022-09-14T16:52:51.589Z,100830.50
2022-09-14T16:55:22.110Z,100827.81
2022-09-14T16:57:51.301Z,100827.09
2022-09-14T17:00:20.548Z,100823.06
2022-09-14T17:02:53.515Z,100834.28
2022-09-14T17:05:22.750Z,100839.41
2022-09-14T17:07:51.903Z,100831.81
2022-09-14T17:10:22.437Z,100832.59
2022-09-14T17:12:51.638Z,100841.44
2022-09-14T17:15:20.942Z,100844.19
2022-09-14T17:17:50.183Z,100847.69
2022-09-14T17:20:19.333Z,100842.28
2022-09-14T17:22:48.525Z,100840.38
2022-09-14T17:25:17.747Z,100849.78
2022-09-14T17:27:48.324Z,100848.25
2022-09-14T17:30:17.567Z,100830.44
2022-09-14T17:32:46.738Z,100851.38
2022-09-14T17:35:16.101Z,100855.22
2022-09-14T17:37:45.268Z,100856.03
2022-09-14T17:40:14.461Z,100860.38
2022-09-14T17:42:43.643Z,100856.75
2022-09-14T17:45:14.671Z,100865.94
2022-09-14T17:47:43.930Z,100873.47
2022-09-14T17:50:13.250Z,100872.28
2022-09-14T17:52:42.414Z,100868.38
2022-09-14T17:55:11.780Z,100878.38
2022-09-14T17:57:40.922Z,100877.81
2022-09-14T18:00:11.794Z,100885.69
2022-09-14T18:02:42.457Z,100871.34
2022-09-14T18:05:11.675Z,100878.13
2022-09-14T18:07:40.842Z,100879.88
2022-09-14T18:10:10.496Z,100870.22
2022-09-14T18:12:39.890Z,100888.06
2022-09-14T18:15:10.606Z,100886.47
2022-09-14T18:17:41.216Z,100891.69
2022-09-14T18:20:12.339Z,100890.31
2022-09-14T18:22:42.044Z,100867.91
2022-09-14T18:25:11.621Z,100899.25
2022-09-14T18:27:41.023Z,100895.84
2022-09-14T18:30:11.738Z,100906.13
2022-09-14T18:32:42.273Z,100881.28
2022-09-14T18:35:13.064Z,100908.69
2022-09-14T18:37:42.475Z,100898.69
2022-09-14T18:40:12.465Z,100917.00
2022-09-14T18:42:41.904Z,100909.75
2022-09-14T18:45:12.073Z,100920.00
2022-09-14T18:47:42.952Z,100924.75
2022-09-14T18:50:12.339Z,100926.81
2022-09-14T18:52:41.611Z,100930.63
2022-09-14T18:55:11.062Z,100935.91
2022-09-14T18:57:40.361Z,100922.94
2022-09-14T19:00:15.214Z,100941.25
2022-09-14T19:02:53.934Z,100933.41
2022-09-14T19:05:24.287Z,100944.22
2022-09-14T19:07:53.934Z,100947.94
2022-09-14T19:10:23.276Z,100955.09
2022-09-14T19:12:52.466Z,100959.44
2022-09-14T19:15:21.613Z,100964.97
2022-09-14T19:17:52.180Z,100960.94
2022-09-14T19:20:22.435Z,100965.66
2022-09-14T19:22:52.333Z,100953.53
2022-09-14T19:25:21.724Z,100961.09
2022-09-14T19:27:50.908Z,100960.22
2022-09-14T19:30:20.283Z,100965.28
2022-09-14T19:32:51.185Z,100968.31
2022-09-14T19:35:20.594Z,100967.22
2022-09-14T19:37:50.017Z,100972.63
2022-09-14T19:40:20.814Z,100956.09
2022-09-14T19:42:50.110Z,100964.47
2022-09-14T19:45:19.866Z,100958.72
2022-09-14T19:47:49.177Z,100942.50
2022-09-14T19:50:19.675Z,100974.38
2022-09-14T19:52:48.885Z,100974.97
2022-09-14T19:55:18.202Z,100973.13
2022-09-14T19:57:48.333Z,100972.47
2022-09-14T20:00:18.310Z,100981.66
2022-09-14T20:02:47.882Z,100979.03
2022-09-14T20:05:18.746Z,100978.00
2022-09-14T20:07:48.542Z,100971.56
2022-09-14T20:10:18.465Z,100984.09
2022-09-14T20:12:47.708Z,100992.63
2022-09-14T20:15:17.586Z,100985.38
2022-09-14T20:17:46.790Z,100980.78
2022-09-14T20:20:17.324Z,100993.53
2022-09-14T20:22:48.047Z,100995.63
2022-09-14T20:25:17.538Z,100995.69
2022-09-14T20:27:49.314Z,100989.03
2022-09-14T20:30:18.950Z,100969.75
2022-09-14T20:32:48.160Z,100997.66
2022-09-14T20:35:17.615Z,101008.34
2022-09-14T20:37:48.305Z,101010.84
2022-09-14T20:40:19.546Z,101007.88
2022-09-14T20:42:48.902Z,101018.69
2022-09-14T20:45:18.300Z,101024.00
2022-09-14T20:47:48.069Z,101030.44
2022-09-14T20:50:17.357Z,101024.13
2022-09-14T20:52:47.949Z,101032.63
2022-09-14T20:55:18.220Z,101039.44
2022-09-14T20:57:47.386Z,101031.38
2022-09-14T21:00:17.691Z,101039.28
2022-09-14T21:02:51.814Z,101042.53
2022-09-14T21:05:21.022Z,101045.75
2022-09-14T21:10:41.914Z,101059.09
2022-09-14T21:11:12.050Z,101040.09
2022-09-14T21:13:11.067Z,101045.63
2022-09-14T21:15:40.257Z,101057.59
2022-09-14T21:18:09.375Z,101051.38
2022-09-14T21:20:39.647Z,101016.75
2022-09-14T21:23:10.403Z,101046.44
2022-09-14T21:25:39.627Z,101039.53
2022-09-14T21:28:08.811Z,101055.06
2022-09-14T21:30:38.686Z,101043.44
2022-09-14T21:33:08.048Z,101038.13
2022-09-14T21:35:37.223Z,101046.66
2022-09-14T21:38:06.396Z,101054.72
2022-09-14T21:40:37.729Z,101062.19
2022-09-14T21:43:08.159Z,101035.50
2022-09-14T21:45:44.810Z,101051.13
2022-09-14T21:48:14.284Z,101057.47
2022-09-14T21:50:47.380Z,101050.69
2022-09-14T21:53:16.958Z,101073.91
2022-09-14T21:55:47.671Z,101078.28
2022-09-14T21:58:16.907Z,101065.03
2022-09-14T22:00:46.098Z,101081.16
2022-09-14T22:03:15.379Z,101066.50
2022-09-14T22:05:44.567Z,101082.84
2022-09-14T22:08:13.795Z,101079.63
2022-09-14T22:10:42.953Z,101097.34
2022-09-14T22:13:13.546Z,101082.38
2022-09-14T22:15:42.931Z,101105.63
2022-09-14T22:18:12.155Z,101102.72
2022-09-14T22:20:41.286Z,101100.81
2022-09-14T22:23:10.799Z,101113.75
2022-09-14T22:25:43.605Z,101109.59
2022-09-14T22:28:14.647Z,101102.50
2022-09-14T22:30:46.497Z,101100.78
2022-09-14T22:33:16.567Z,101095.94
2022-09-14T22:35:54.180Z,101082.22
2022-09-14T22:38:25.212Z,101095.94
2022-09-14T22:40:58.053Z,101093.03
2022-09-14T22:43:29.561Z,101100.09
2022-09-14T22:45:58.872Z,101102.50
2022-09-14T22:48:29.138Z,101093.44
2022-09-14T22:50:59.645Z,101095.72
2022-09-14T22:53:30.951Z,101092.97
2022-09-14T22:56:00.498Z,101114.84
2022-09-14T22:58:31.381Z,101101.59
2022-09-14T23:01:07.736Z,101113.16
2022-09-14T23:03:37.668Z,101131.47
2022-09-14T23:06:08.298Z,101133.72
2022-09-14T23:08:38.618Z,101130.84
2022-09-14T23:11:11.892Z,101139.25
2022-09-14T23:13:43.595Z,101110.22
2022-09-14T23:16:15.285Z,101133.28
2022-09-14T23:18:46.324Z,101131.84
2022-09-14T23:21:15.607Z,101138.97
2022-09-14T23:23:44.740Z,101133.16
2022-09-14T23:26:14.314Z,101114.72
2022-09-14T23:28:44.952Z,101118.22
2022-09-14T23:31:14.417Z,101115.56
2022-09-14T23:33:43.609Z,101102.47
2022-09-14T23:36:12.762Z,101108.09
2022-09-14T23:38:41.887Z,101101.31
2022-09-14T23:41:11.087Z,101103.63
2022-09-14T23:43:40.383Z,101095.88
2022-09-14T23:46:11.339Z,101104.06
2022-09-14T23:48:40.920Z,101101.41
2022-09-14T23:51:12.073Z,101103.88
2022-09-14T23:53:42.081Z,101120.69
2022-09-14T23:56:12.155Z,101122.50
2022-09-14T23:58:42.369Z,101124.47
